createdAt,value
2023-03-25T00:00:24.492Z,93
2023-03-25T00:30:16.085Z,93
2023-03-25T01:00:29.008Z,94
2023-03-25T01:30:20.558Z,93
2023-03-25T02:00:01.426Z,93
2023-03-25T02:30:14.444Z,95
2023-03-25T03:00:06.262Z,95
2023-03-25T03:30:19.336Z,94
2023-03-25T04:30:29.771Z,92
2023-03-25T05:00:02.010Z,93
2023-03-25T05:30:12.654Z,94
2023-03-25T06:00:15.917Z,94
2023-03-25T06:30:28.591Z,95
2023-03-25T07:00:00.619Z,93
2023-03-25T07:30:22.837Z,93
2023-03-25T08:00:05.487Z,95
2023-03-25T08:30:26.706Z,93
2023-03-25T09:00:26.433Z,91
2023-03-25T09:30:17.344Z,93
2023-03-25T10:00:21.633Z,91
2023-03-25T10:30:12.227Z,85
2023-03-25T11:00:03.291Z,83
2023-03-25T11:30:16.766Z,79
2023-03-25T12:00:07.714Z,83
2023-03-25T12:30:12.280Z,74
2023-03-25T13:00:12.939Z,80
2023-03-25T13:30:24.401Z,74
2023-03-25T14:00:25.405Z,74
2023-03-25T14:30:07.100Z,78
2023-03-25T15:00:10.420Z,93
2023-03-25T15:30:22.044Z,75
2023-03-25T16:00:04.850Z,80
2023-03-25T16:30:26.367Z,75
2023-03-25T17:00:09.837Z,78
2023-03-25T17:30:01.049Z,86
2023-03-25T18:30:02.510Z,88
2023-03-25T19:00:02.739Z,87
2023-03-25T19:30:14.126Z,86
2023-03-25T20:00:28.089Z,85
2023-03-25T20:30:08.335Z,91
2023-03-25T21:00:12.625Z,93
2023-03-25T21:30:03.672Z,91
2023-03-25T22:00:17.164Z,92
2023-03-25T22:30:28.869Z,91
2023-03-25T23:00:27.088Z,89
2023-03-25T23:30:09.439Z,90
